createdAt,value
2022-08-22T00:00:13.507Z,6.70
2022-08-22T00:02:41.880Z,9.90
2022-08-22T00:03:08.326Z,7.15
2022-08-22T00:03:11.649Z,7.05
2022-08-22T00:03:11.734Z,7.03
2022-08-22T00:03:17.566Z,6.82
2022-08-22T00:05:59.582Z,7.18
2022-08-22T00:08:55.043Z,7.35
2022-08-22T00:11:34.982Z,7.63
2022-08-22T00:14:39.921Z,7.10
2022-08-22T00:17:23.652Z,7.10
2022-08-22T00:23:10.168Z,6.80
2022-08-22T00:25:43.875Z,6.00
2022-08-22T00:28:22.798Z,7.13
2022-08-22T00:30:59.981Z,6.78
2022-08-22T00:33:46.465Z,6.75
2022-08-22T00:36:47.944Z,7.55
2022-08-22T00:39:32.737Z,6.82
2022-08-22T00:42:04.469Z,6.75
2022-08-22T00:44:41.728Z,7.75
2022-08-22T00:47:19.919Z,7.97
2022-08-22T00:50:04.739Z,7.75
2022-08-22T00:52:42.146Z,7.72
2022-08-22T00:55:35.065Z,7.60
2022-08-22T00:58:27.765Z,7.93
2022-08-22T01:01:01.148Z,8.00
2022-08-22T01:06:27.131Z,7.43
2022-08-22T01:09:24.436Z,8.27
2022-08-22T01:12:25.882Z,7.70
2022-08-22T01:15:00.779Z,7.90
2022-08-22T01:17:45.695Z,8.40
2022-08-22T01:20:19.788Z,7.75
2022-08-22T01:23:13.666Z,15.52
2022-08-22T01:28:47.384Z,25.42
2022-08-22T01:31:42.826Z,8.45
2022-08-22T01:34:23.288Z,15.70
2022-08-22T01:37:27.692Z,8.30
2022-08-22T01:40:14.037Z,8.30
2022-08-22T01:42:53.962Z,7.95
2022-08-22T01:45:43.033Z,7.93
2022-08-22T01:48:16.690Z,8.02
2022-08-22T01:50:58.734Z,7.82
2022-08-22T01:53:41.022Z,7.68
2022-08-22T01:56:16.669Z,7.75
2022-08-22T01:59:03.731Z,7.85
2022-08-22T02:01:40.649Z,8.27
2022-08-22T02:04:29.146Z,8.25
2022-08-22T02:07:29.163Z,9.05
2022-08-22T02:10:06.673Z,9.02
2022-08-22T02:12:53.718Z,8.40
2022-08-22T02:15:22.790Z,7.90
2022-08-22T02:18:06.115Z,7.88
2022-08-22T02:20:49.458Z,8.77
2022-08-22T02:23:47.175Z,9.10
2022-08-22T02:26:20.746Z,8.55
2022-08-22T02:29:12.754Z,9.23
2022-08-22T02:32:01.750Z,8.90
2022-08-22T02:34:54.123Z,8.48
2022-08-22T02:37:55.380Z,9.52
2022-08-22T02:40:35.029Z,9.80
2022-08-22T02:43:27.863Z,8.98
2022-08-22T02:46:01.449Z,9.68
2022-08-22T02:48:37.615Z,9.68
2022-08-22T02:51:28.764Z,9.00
2022-08-22T02:53:59.380Z,9.48
2022-08-22T02:56:30.195Z,9.70
2022-08-22T02:59:28.190Z,9.20
2022-08-22T03:01:57.088Z,9.88
2022-08-22T03:04:25.109Z,10.30
2022-08-22T03:07:17.191Z,9.85
2022-08-22T03:10:06.069Z,10.25
2022-08-22T03:12:43.018Z,10.40
2022-08-22T03:15:35.950Z,10.63
2022-08-22T03:18:25.437Z,10.93
2022-08-22T03:20:56.487Z,8.40
2022-08-22T03:23:37.427Z,10.85
2022-08-22T03:26:29.586Z,9.55
2022-08-22T03:29:10.893Z,10.45
2022-08-22T03:31:39.383Z,10.07
2022-08-22T03:34:25.592Z,10.05
2022-08-22T03:37:18.297Z,10.73
2022-08-22T03:39:55.142Z,9.85
2022-08-22T03:42:44.790Z,10.02
2022-08-22T03:45:44.035Z,9.68
2022-08-22T03:48:25.491Z,10.27
2022-08-22T03:51:01.111Z,9.65
2022-08-22T03:53:35.090Z,10.05
2022-08-22T03:59:10.147Z,9.57
2022-08-22T04:01:59.062Z,10.43
2022-08-22T04:04:50.123Z,10.10
2022-08-22T04:07:39.161Z,9.55
2022-08-22T04:10:39.894Z,10.90
2022-08-22T04:13:24.767Z,9.93
2022-08-22T04:16:04.845Z,10.00
2022-08-22T04:18:41.790Z,10.40
2022-08-22T04:21:28.090Z,11.07
2022-08-22T04:24:34.219Z,10.60
2022-08-22T04:27:45.371Z,11.20
2022-08-22T04:30:26.883Z,11.00
2022-08-22T04:33:08.052Z,11.68
2022-08-22T04:35:52.790Z,10.02
2022-08-22T04:38:40.159Z,10.90
2022-08-22T04:41:15.075Z,11.80
2022-08-22T04:43:48.105Z,11.05
2022-08-22T04:46:32.103Z,10.60
2022-08-22T04:49:26.863Z,11.55
2022-08-22T04:52:29.436Z,11.60
2022-08-22T04:55:09.687Z,11.13
2022-08-22T04:58:18.595Z,10.93
2022-08-22T05:01:09.904Z,11.32
2022-08-22T05:03:44.979Z,10.95
2022-08-22T05:06:14.354Z,11.02
2022-08-22T05:08:45.805Z,11.45
2022-08-22T05:11:19.476Z,11.20
2022-08-22T05:14:07.132Z,11.05
2022-08-22T05:16:48.986Z,10.40
2022-08-22T05:19:28.391Z,11.15
2022-08-22T05:21:59.468Z,11.80
2022-08-22T05:24:43.055Z,10.73
2022-08-22T05:27:26.282Z,12.85
2022-08-22T05:30:06.287Z,11.75
2022-08-22T05:33:00.666Z,12.45
2022-08-22T05:35:36.536Z,12.52
2022-08-22T05:38:08.032Z,12.98
2022-08-22T05:40:37.734Z,12.27
2022-08-22T05:43:07.216Z,12.55
2022-08-22T05:45:35.805Z,13.20
2022-08-22T05:48:07.563Z,11.85
2022-08-22T05:50:38.288Z,13.20
2022-08-22T05:53:32.336Z,11.95
2022-08-22T05:56:37.216Z,12.63
2022-08-22T06:01:43.680Z,12.27
2022-08-22T06:04:54.021Z,11.57
2022-08-22T06:07:28.878Z,11.57
2022-08-22T06:10:08.781Z,11.45
2022-08-22T06:12:43.118Z,12.00
2022-08-22T06:15:21.029Z,12.07
2022-08-22T06:17:52.390Z,12.15
2022-08-22T06:20:28.714Z,11.85
2022-08-22T06:23:00.520Z,13.07
2022-08-22T06:25:36.339Z,12.65
2022-08-22T06:28:13.731Z,11.85
2022-08-22T06:30:41.988Z,12.23
2022-08-22T06:33:14.739Z,12.80
2022-08-22T06:35:50.304Z,12.15
2022-08-22T06:38:20.201Z,13.73
2022-08-22T06:40:49.983Z,12.77
2022-08-22T06:43:18.623Z,13.65
2022-08-22T06:45:50.278Z,13.85
2022-08-22T06:48:20.671Z,12.77
2022-08-22T06:50:53.030Z,12.70
2022-08-22T06:53:48.176Z,12.82
2022-08-22T06:56:27.606Z,12.73
2022-08-22T06:59:00.768Z,12.75
2022-08-22T07:01:34.302Z,12.90
2022-08-22T07:04:08.507Z,12.63
2022-08-22T07:06:38.290Z,12.32
2022-08-22T07:09:16.197Z,12.32
2022-08-22T07:11:47.198Z,12.60
2022-08-22T07:14:28.969Z,11.65
2022-08-22T07:17:07.722Z,12.65
2022-08-22T07:19:38.992Z,11.35
2022-08-22T07:22:26.715Z,12.02
2022-08-22T07:25:20.862Z,11.60
2022-08-22T07:28:06.937Z,12.85
2022-08-22T07:30:52.377Z,12.00
2022-08-22T07:33:39.161Z,12.10
2022-08-22T07:36:23.268Z,12.68
2022-08-22T07:39:11.207Z,14.32
2022-08-22T07:42:02.254Z,13.23
2022-08-22T07:45:02.030Z,13.00
2022-08-22T07:48:10.916Z,11.70
2022-08-22T07:50:47.534Z,12.45
2022-08-22T07:53:35.750Z,12.40
2022-08-22T07:56:08.998Z,12.95
2022-08-22T07:58:39.451Z,13.18
2022-08-22T08:01:15.243Z,12.90
2022-08-22T08:03:47.175Z,12.73
2022-08-22T08:06:15.311Z,11.93
2022-08-22T08:08:45.479Z,12.27
2022-08-22T08:11:18.474Z,13.15
2022-08-22T08:13:48.954Z,12.55
2022-08-22T08:16:28.254Z,12.77
2022-08-22T08:18:58.404Z,12.50
2022-08-22T08:21:34.127Z,12.88
2022-08-22T08:24:03.982Z,12.60
2022-08-22T08:26:48.144Z,13.48
2022-08-22T08:29:18.307Z,13.40
2022-08-22T08:31:50.583Z,13.30
2022-08-22T08:34:25.413Z,13.13
2022-08-22T08:37:12.878Z,14.02
2022-08-22T08:39:46.088Z,13.25
2022-08-22T08:42:25.932Z,13.23
2022-08-22T08:45:18.669Z,13.05
2022-08-22T08:48:10.803Z,14.18
2022-08-22T08:50:45.278Z,13.32
2022-08-22T08:53:51.273Z,13.55
2022-08-22T08:56:54.250Z,13.10
2022-08-22T08:59:43.155Z,12.88
2022-08-22T09:02:35.779Z,13.20
2022-08-22T09:05:37.338Z,13.80
2022-08-22T09:08:14.331Z,13.52
2022-08-22T09:14:27.185Z,12.82
2022-08-22T09:17:19.437Z,14.55
2022-08-22T09:20:26.267Z,13.85
2022-08-22T09:23:35.898Z,13.70
2022-08-22T09:26:20.431Z,14.10
2022-08-22T09:28:59.074Z,14.88
2022-08-22T09:31:44.807Z,13.38
2022-08-22T09:34:23.962Z,13.90
2022-08-22T09:37:05.425Z,15.23
2022-08-22T09:39:51.483Z,13.98
2022-08-22T09:40:16.098Z,14.05
2022-08-22T09:42:30.250Z,13.63
2022-08-22T09:45:19.748Z,14.73
2022-08-22T09:48:06.354Z,13.48
2022-08-22T09:51:20.010Z,13.95
2022-08-22T09:54:16.170Z,13.88
2022-08-22T09:56:46.910Z,13.02
2022-08-22T09:59:26.568Z,13.93
2022-08-22T10:01:55.085Z,13.80
2022-08-22T10:04:40.327Z,13.82
2022-08-22T10:07:13.369Z,15.20
2022-08-22T10:10:04.444Z,13.52
2022-08-22T10:13:14.255Z,14.52
2022-08-22T10:16:17.291Z,13.82
2022-08-22T10:19:09.069Z,15.32
2022-08-22T10:21:42.527Z,14.82
2022-08-22T10:24:54.741Z,14.23
2022-08-22T10:27:54.867Z,14.60
2022-08-22T10:30:43.998Z,13.88
2022-08-22T10:33:34.715Z,13.18
2022-08-22T10:36:12.280Z,15.27
2022-08-22T10:38:59.162Z,16.85
2022-08-22T10:41:58.070Z,15.43
2022-08-22T10:44:40.271Z,15.00
2022-08-22T10:47:22.762Z,15.70
2022-08-22T10:49:53.428Z,16.27
2022-08-22T10:52:56.498Z,14.63
2022-08-22T10:55:31.492Z,15.90
2022-08-22T10:58:10.477Z,15.90
2022-08-22T11:00:55.084Z,16.77
2022-08-22T11:03:41.259Z,15.70
2022-08-22T11:06:30.740Z,16.80
2022-08-22T11:09:09.613Z,16.42
2022-08-22T11:11:57.048Z,17.45
2022-08-22T11:14:48.681Z,17.05
2022-08-22T11:17:32.443Z,16.63
2022-08-22T11:20:32.315Z,16.10
2022-08-22T11:23:21.572Z,16.00
2022-08-22T11:26:07.798Z,15.70
2022-08-22T11:29:14.148Z,16.85
2022-08-22T11:31:51.569Z,16.50
2022-08-22T11:34:34.942Z,18.35
2022-08-22T11:37:43.020Z,19.88
2022-08-22T11:40:37.735Z,19.05
2022-08-22T11:43:32.510Z,19.00
2022-08-22T11:46:20.012Z,16.52
2022-08-22T11:49:06.436Z,17.65
2022-08-22T11:51:58.012Z,18.65
2022-08-22T11:54:54.633Z,18.33
2022-08-22T11:57:31.364Z,18.15
2022-08-22T12:00:08.875Z,17.95
2022-08-22T12:02:48.981Z,17.80
2022-08-22T12:05:26.241Z,19.17
2022-08-22T12:08:31.561Z,19.25
2022-08-22T12:11:00.189Z,19.38
2022-08-22T12:13:40.520Z,19.38
2022-08-22T12:16:24.049Z,18.83
2022-08-22T12:21:23.765Z,19.80
2022-08-22T12:24:21.246Z,20.13
2022-08-22T12:27:08.747Z,19.30
2022-08-22T12:29:45.889Z,18.85
2022-08-22T12:32:45.733Z,19.88
2022-08-22T12:35:17.006Z,18.90
2022-08-22T12:38:11.858Z,17.60
2022-08-22T12:41:00.583Z,19.20
2022-08-22T12:43:49.667Z,18.33
2022-08-22T12:46:37.840Z,18.92
2022-08-22T12:49:37.143Z,19.00
2022-08-22T12:52:24.169Z,19.25
2022-08-22T12:54:54.965Z,19.92
2022-08-22T12:57:40.423Z,19.15
2022-08-22T13:00:17.765Z,19.15
2022-08-22T13:02:56.238Z,18.42
2022-08-22T13:05:27.038Z,19.35
2022-08-22T13:08:02.408Z,18.80
2022-08-22T13:10:57.470Z,18.77
2022-08-22T13:13:40.967Z,19.65
2022-08-22T13:16:14.470Z,18.30
2022-08-22T13:18:53.479Z,18.50
2022-08-22T13:21:32.132Z,17.58
2022-08-22T13:24:12.686Z,16.95
2022-08-22T13:27:05.643Z,17.00
2022-08-22T13:29:45.903Z,18.63
2022-08-22T13:32:33.619Z,18.33
2022-08-22T13:35:03.605Z,16.65
2022-08-22T13:37:39.139Z,17.90
2022-08-22T13:40:15.414Z,18.25
2022-08-22T13:42:54.185Z,17.73
2022-08-22T13:45:29.201Z,17.50
2022-08-22T13:48:03.802Z,18.23
2022-08-22T13:50:53.405Z,18.85
2022-08-22T13:53:32.795Z,17.50
2022-08-22T13:56:08.155Z,18.63
2022-08-22T13:59:07.636Z,18.85
2022-08-22T14:01:54.063Z,18.13
2022-08-22T14:07:04.597Z,17.20
2022-08-22T14:09:54.390Z,17.35
2022-08-22T14:12:50.054Z,17.20
2022-08-22T14:15:26.702Z,17.90
2022-08-22T14:18:30.375Z,16.95
2022-08-22T14:21:20.042Z,19.33
2022-08-22T14:23:52.355Z,17.60
2022-08-22T14:26:37.312Z,17.85
2022-08-22T14:29:18.689Z,19.25
2022-08-22T14:31:58.369Z,17.15
2022-08-22T14:34:27.690Z,17.80
2022-08-22T14:37:08.978Z,16.38
2022-08-22T14:39:56.337Z,17.75
2022-08-22T14:42:34.142Z,18.15
2022-08-22T14:45:30.245Z,18.15
2022-08-22T14:48:30.396Z,17.83
2022-08-22T14:50:53.485Z,17.95
2022-08-22T14:53:29.620Z,17.40
2022-08-22T14:56:06.381Z,17.58
2022-08-22T14:58:47.144Z,17.33
2022-08-22T15:01:19.588Z,18.30
2022-08-22T15:04:11.787Z,16.88
2022-08-22T15:06:47.683Z,17.17
2022-08-22T15:09:40.580Z,16.70
2022-08-22T15:12:38.671Z,18.35
2022-08-22T15:15:29.297Z,16.55
2022-08-22T15:18:05.373Z,15.32
2022-08-22T15:20:49.081Z,16.30
2022-08-22T15:23:23.146Z,16.10
2022-08-22T15:26:04.051Z,15.93
2022-08-22T15:28:53.327Z,17.05
2022-08-22T15:31:22.054Z,14.85
2022-08-22T15:33:51.295Z,16.05
2022-08-22T15:36:26.088Z,15.45
2022-08-22T15:39:31.322Z,14.93
2022-08-22T15:42:05.491Z,15.73
2022-08-22T15:44:39.243Z,16.00
2022-08-22T15:47:27.691Z,16.88
2022-08-22T15:50:05.864Z,15.65
2022-08-22T15:52:59.124Z,15.68
2022-08-22T15:55:34.395Z,15.40
2022-08-22T15:58:13.217Z,15.80
2022-08-22T16:01:18.916Z,14.85
2022-08-22T16:04:09.084Z,14.65
2022-08-22T16:06:53.847Z,15.60
2022-08-22T16:09:36.515Z,16.00
2022-08-22T16:12:09.278Z,15.48
2022-08-22T16:14:37.243Z,13.77
2022-08-22T16:17:27.767Z,13.98
2022-08-22T16:20:20.009Z,14.27
2022-08-22T16:22:57.774Z,12.68
2022-08-22T16:25:47.148Z,14.20
2022-08-22T16:29:02.552Z,13.02
2022-08-22T16:31:32.616Z,14.05
2022-08-22T16:34:19.007Z,13.95
2022-08-22T16:36:51.931Z,12.18
2022-08-22T16:39:22.957Z,11.35
2022-08-22T16:42:15.496Z,11.80
2022-08-22T16:44:56.798Z,13.18
2022-08-22T16:47:24.769Z,13.38
2022-08-22T16:49:52.723Z,11.90
2022-08-22T16:52:26.617Z,13.02
2022-08-22T16:57:54.470Z,11.82
2022-08-22T17:00:40.299Z,12.15
2022-08-22T17:03:17.620Z,12.05
2022-08-22T17:06:17.972Z,13.05
2022-08-22T17:08:51.604Z,12.48
2022-08-22T17:11:30.720Z,11.40
2022-08-22T17:14:28.825Z,11.32
2022-08-22T17:17:08.499Z,11.50
2022-08-22T17:20:17.875Z,11.73
2022-08-22T17:22:45.859Z,11.32
2022-08-22T17:25:33.299Z,11.20
2022-08-22T17:28:25.018Z,11.15
2022-08-22T17:31:14.085Z,11.20
2022-08-22T17:33:42.059Z,12.10
2022-08-22T17:36:26.837Z,11.77
2022-08-22T17:39:04.130Z,11.20
2022-08-22T17:41:38.251Z,11.63
2022-08-22T17:44:20.317Z,11.93
2022-08-22T17:47:03.985Z,10.93
2022-08-22T17:49:45.231Z,11.95
2022-08-22T17:52:41.286Z,11.00
2022-08-22T17:55:19.655Z,11.75
2022-08-22T17:57:56.958Z,11.30
2022-08-22T18:00:31.855Z,12.50
2022-08-22T18:03:14.955Z,10.60
2022-08-22T18:06:31.906Z,9.90
2022-08-22T18:09:17.066Z,11.43
2022-08-22T18:11:57.529Z,11.10
2022-08-22T18:14:41.154Z,10.63
2022-08-22T18:17:20.266Z,10.38
2022-08-22T18:19:54.359Z,9.27
2022-08-22T18:22:27.715Z,9.55
2022-08-22T18:25:19.422Z,9.50
2022-08-22T18:27:52.710Z,8.18
2022-08-22T18:30:23.590Z,7.93
2022-08-22T18:33:20.310Z,8.30
2022-08-22T18:35:56.518Z,7.60
2022-08-22T18:38:32.298Z,7.50
2022-08-22T18:41:10.277Z,7.07
2022-08-22T18:43:51.363Z,8.02
2022-08-22T18:46:32.658Z,8.38
2022-08-22T18:49:20.746Z,8.98
2022-08-22T18:52:07.226Z,7.30
2022-08-22T18:54:48.551Z,8.40
2022-08-22T18:57:40.289Z,8.60
2022-08-22T19:00:21.843Z,8.35
2022-08-22T19:03:05.106Z,8.23
2022-08-22T19:05:51.667Z,8.55
2022-08-22T19:08:40.831Z,8.25
2022-08-22T19:11:27.125Z,6.85
2022-08-22T19:14:22.175Z,8.07
2022-08-22T19:17:05.816Z,6.43
2022-08-22T19:19:42.993Z,6.68
2022-08-22T19:22:30.385Z,6.65
2022-08-22T19:25:10.249Z,5.95
2022-08-22T19:27:40.875Z,7.00
2022-08-22T19:30:34.596Z,7.00
2022-08-22T19:33:06.419Z,6.30
2022-08-22T19:35:39.153Z,6.57
2022-08-22T19:38:09.481Z,6.57
2022-08-22T19:40:46.618Z,6.05
2022-08-22T19:43:35.334Z,7.38
2022-08-22T19:46:07.077Z,6.28
2022-08-22T19:48:45.750Z,5.93
2022-08-22T19:51:29.649Z,5.30
2022-08-22T19:56:58.903Z,6.03
2022-08-22T19:59:39.203Z,5.57
2022-08-22T20:02:50.142Z,5.90
2022-08-22T20:05:26.073Z,5.55
2022-08-22T20:08:08.656Z,5.90
2022-08-22T20:10:36.649Z,5.38
2022-08-22T20:13:12.229Z,5.07
2022-08-22T20:16:12.801Z,5.65
2022-08-22T20:19:08.441Z,5.03
2022-08-22T20:22:15.763Z,6.45
2022-08-22T20:25:17.193Z,5.10
2022-08-22T20:28:08.219Z,5.65
2022-08-22T20:30:45.107Z,5.78
2022-08-22T20:33:25.929Z,6.80
2022-08-22T20:35:56.502Z,6.55
2022-08-22T20:38:32.819Z,6.30
2022-08-22T20:41:13.492Z,7.22
2022-08-22T20:43:51.315Z,6.82
2022-08-22T20:46:47.765Z,6.53
2022-08-22T20:49:23.491Z,6.82
2022-08-22T20:51:53.159Z,6.97
2022-08-22T20:54:28.223Z,7.43
2022-08-22T20:57:02.361Z,7.75
2022-08-22T20:59:35.034Z,8.13
2022-08-22T21:02:34.969Z,7.93
2022-08-22T21:05:04.055Z,7.80
2022-08-22T21:07:37.941Z,8.73
2022-08-22T21:10:10.307Z,7.55
2022-08-22T21:12:38.315Z,7.65
2022-08-22T21:15:06.766Z,7.32
2022-08-22T21:17:39.101Z,8.27
2022-08-22T21:20:22.247Z,9.17
2022-08-22T21:22:50.810Z,7.53
2022-08-22T21:25:21.189Z,8.82
2022-08-22T21:27:49.647Z,9.60
2022-08-22T21:30:26.232Z,8.20
2022-08-22T21:32:56.108Z,8.55
2022-08-22T21:35:34.751Z,10.07
2022-08-22T21:38:03.076Z,9.52
2022-08-22T21:40:39.289Z,8.93
2022-08-22T21:43:12.847Z,8.93
2022-08-22T21:49:05.654Z,9.48
2022-08-22T21:51:44.391Z,9.30
2022-08-22T21:54:25.513Z,8.93
2022-08-22T21:56:56.227Z,10.98
2022-08-22T21:59:43.099Z,9.48
2022-08-22T22:02:35.308Z,9.27
2022-08-22T22:05:11.672Z,8.93
2022-08-22T22:07:42.117Z,8.93
2022-08-22T22:10:17.362Z,8.85
2022-08-22T22:12:46.974Z,8.45
2022-08-22T22:15:21.951Z,9.68
2022-08-22T22:17:50.859Z,9.43
2022-08-22T22:20:23.406Z,9.38
2022-08-22T22:22:51.550Z,10.63
2022-08-22T22:25:39.684Z,8.75
2022-08-22T22:28:21.625Z,9.48
2022-08-22T22:30:52.914Z,9.68
2022-08-22T22:33:31.832Z,9.25
2022-08-22T22:36:05.770Z,8.77
2022-08-22T22:38:33.897Z,9.90
2022-08-22T22:41:07.119Z,8.93
2022-08-22T22:43:35.484Z,9.15
2022-08-22T22:46:03.530Z,8.32
2022-08-22T22:48:31.576Z,8.57
2022-08-22T22:51:00.028Z,7.93
2022-08-22T22:53:38.156Z,8.20
2022-08-22T22:56:09.914Z,9.13
2022-08-22T22:58:38.954Z,8.82
2022-08-22T23:01:17.131Z,8.52
2022-08-22T23:03:45.941Z,8.32
2022-08-22T23:06:19.960Z,7.80
2022-08-22T23:08:53.370Z,8.45
2022-08-22T23:11:27.383Z,7.82
2022-08-22T23:13:58.001Z,6.28
2022-08-22T23:16:29.211Z,6.15
2022-08-22T23:18:58.488Z,4.30
2022-08-22T23:21:29.421Z,4.53
2022-08-22T23:24:05.411Z,3.90
2022-08-22T23:26:33.533Z,2.47
2022-08-22T23:29:07.004Z,2.00
2022-08-22T23:31:53.080Z,2.13
2022-08-22T23:34:26.623Z,1.83
2022-08-22T23:36:58.173Z,2.15
2022-08-22T23:39:30.496Z,2.70
2022-08-22T23:41:59.306Z,2.97
2022-08-22T23:44:30.251Z,3.25
2022-08-22T23:46:59.075Z,3.17
2022-08-22T23:49:28.187Z,2.85
2022-08-22T23:51:56.531Z,2.90
2022-08-22T23:54:25.966Z,2.47
2022-08-22T23:56:58.819Z,2.35
2022-08-22T23:59:31.483Z,2.20
